Decoded Metar for DABT (BATNA in ALGERIA) (IATA:N/A) | Meteo·Mobile Aviation Weather
aviador You're here:

DABT Decoded Metar

BATNA in ALGERIA
Report Time2018-10-19 08:00:00
UTC Time2018-10-19 08:38:58
Flight Rules ifr IFR
WindCalm
Visibility3000 m
Phenomena:Mist
Clouds:Scattered 010 Hf
Broken 023 Hf
Ceiling2,300 ft
Temp12°C (ISA +4)
Dew Point12°C (100% RH)
QNH1016 hPa
Density Alt4,006 ft
Elevation3,451 ft
Report Wrong Elevation
Raw Report
METAR DABT 190800Z 00000KT 3000 BR SCT010 BKN023 12/12 Q1016=

Extra information for DABT:More info

Metar Taf Metar & Taf Last 4 Metars F.Rules Stats Wind Profile Meteogram Temp Stats Airport Information Weather charts Add Link Nearby VenuesMetar ALERT Operation Metar Decoded Social comments